sensor_id;sensor_type;location;lat;lon;timestamp;pressure;altitude;pressure_sealevel;temperature;humidity
39699;BME280;25372;50.582;12.250;2023-12-20T00:02:37;99320.50;;;4.02;100.00
39699;BME280;25372;50.582;12.250;2023-12-20T00:12:59;99309.63;;;3.92;100.00
39699;BME280;25372;50.582;12.250;2023-12-20T00:23:20;99291.88;;;3.83;100.00
39699;BME280;25372;50.582;12.250;2023-12-20T00:33:44;99301.78;;;3.75;100.00
39699;BME280;25372;50.582;12.250;2023-12-20T00:44:06;99295.53;;;3.58;100.00
39699;BME280;25372;50.582;12.250;2023-12-20T00:54:29;99287.06;;;3.55;100.00
39699;BME280;25372;50.582;12.250;2023-12-20T01:04:50;99269.28;;;3.45;100.00
39699;BME280;25372;50.582;12.250;2023-12-20T01:15:13;99246.94;;;3.41;100.00
39699;BME280;25372;50.582;12.250;2023-12-20T01:25:34;99250.84;;;3.31;100.00
39699;BME280;25372;50.582;12.250;2023-12-20T01:35:56;99250.94;;;3.29;100.00
39699;BME280;25372;50.582;12.250;2023-12-20T01:46:17;99245.97;;;3.23;100.00
39699;BME280;25372;50.582;12.250;2023-12-20T01:56:40;99240.06;;;3.19;100.00
39699;BME280;25372;50.582;12.250;2023-12-20T02:07:02;99224.50;;;3.19;100.00
39699;BME280;25372;50.582;12.250;2023-12-20T02:17:26;99212.84;;;3.09;100.00
39699;BME280;25372;50.582;12.250;2023-12-20T02:27:49;99210.31;;;3.07;100.00
39699;BME280;25372;50.582;12.250;2023-12-20T02:38:11;99204.41;;;3.04;100.00
39699;BME280;25372;50.582;12.250;2023-12-20T02:48:34;99200.34;;;2.98;100.00
39699;BME280;25372;50.582;12.250;2023-12-20T02:58:55;99205.38;;;3.01;100.00
39699;BME280;25372;50.582;12.250;2023-12-20T03:09:17;99191.50;;;3.02;100.00
39699;BME280;25372;50.582;12.250;2023-12-20T03:19:38;99197.88;;;2.95;100.00
39699;BME280;25372;50.582;12.250;2023-12-20T03:30:00;99179.72;;;2.95;100.00
39699;BME280;25372;50.582;12.250;2023-12-20T03:40:22;99167.66;;;2.94;100.00
39699;BME280;25372;50.582;12.250;2023-12-20T03:50:44;99169.25;;;2.97;100.00
39699;BME280;25372;50.582;12.250;2023-12-20T04:01:09;99160.66;;;2.96;100.00
39699;BME280;25372;50.582;12.250;2023-12-20T04:11:32;99170.09;;;2.97;100.00
39699;BME280;25372;50.582;12.250;2023-12-20T04:21:53;99158.69;;;3.01;100.00
39699;BME280;25372;50.582;12.250;2023-12-20T04:32:15;99167.94;;;3.07;100.00
39699;BME280;25372;50.582;12.250;2023-12-20T04:42:36;99164.63;;;3.03;100.00
39699;BME280;25372;50.582;12.250;2023-12-20T04:52:59;99179.25;;;3.06;100.00
39699;BME280;25372;50.582;12.250;2023-12-20T05:03:20;99181.50;;;3.14;100.00
39699;BME280;25372;50.582;12.250;2023-12-20T05:13:42;99183.19;;;3.15;100.00
39699;BME280;25372;50.582;12.250;2023-12-20T05:24:04;99190.72;;;3.21;100.00
39699;BME280;25372;50.582;12.250;2023-12-20T05:34:26;99196.75;;;3.21;100.00
39699;BME280;25372;50.582;12.250;2023-12-20T05:44:48;99202.00;;;3.20;100.00
39699;BME280;25372;50.582;12.250;2023-12-20T05:55:10;99207.16;;;3.21;100.00
39699;BME280;25372;50.582;12.250;2023-12-20T06:05:31;99231.28;;;3.24;100.00
39699;BME280;25372;50.582;12.250;2023-12-20T06:15:55;99230.94;;;3.31;100.00
39699;BME280;25372;50.582;12.250;2023-12-20T06:26:16;99235.34;;;3.29;100.00
39699;BME280;25372;50.582;12.250;2023-12-20T06:36:38;99250.66;;;3.35;100.00
39699;BME280;25372;50.582;12.250;2023-12-20T06:46:59;99267.78;;;3.40;100.00
39699;BME280;25372;50.582;12.250;2023-12-20T06:57:22;99287.50;;;3.44;100.00
39699;BME280;25372;50.582;12.250;2023-12-20T07:07:46;99296.00;;;3.47;100.00
39699;BME280;25372;50.582;12.250;2023-12-20T07:18:08;99292.31;;;3.53;100.00
39699;BME280;25372;50.582;12.250;2023-12-20T07:28:29;99300.06;;;3.34;100.00
39699;BME280;25372;50.582;12.250;2023-12-20T07:38:51;99297.06;;;3.43;100.00
39699;BME280;25372;50.582;12.250;2023-12-20T07:49:12;99290.38;;;3.38;100.00
39699;BME280;25372;50.582;12.250;2023-12-20T07:59:35;99290.97;;;2.80;100.00
39699;BME280;25372;50.582;12.250;2023-12-20T08:09:56;99297.00;;;2.81;100.00
39699;BME280;25372;50.582;12.250;2023-12-20T08:20:18;99297.13;;;3.62;100.00
39699;BME280;25372;50.582;12.250;2023-12-20T08:30:40;99285.47;;;3.71;100.00
39699;BME280;25372;50.582;12.250;2023-12-20T08:41:02;99278.75;;;3.86;98.65
39699;BME280;25372;50.582;12.250;2023-12-20T08:51:24;99282.34;;;4.03;96.52
39699;BME280;25372;50.582;12.250;2023-12-20T09:01:48;99299.84;;;3.99;92.84
39699;BME280;25372;50.582;12.250;2023-12-20T09:12:14;99298.28;;;4.53;90.40
39699;BME280;25372;50.582;12.250;2023-12-20T09:22:36;99292.69;;;4.43;89.11
39699;BME280;25372;50.582;12.250;2023-12-20T09:32:58;99286.25;;;4.50;90.84
39699;BME280;25372;50.582;12.250;2023-12-20T09:43:20;99277.78;;;4.08;91.82
39699;BME280;25372;50.582;12.250;2023-12-20T09:53:45;99266.41;;;4.11;91.84
39699;BME280;25372;50.582;12.250;2023-12-20T10:04:10;99254.03;;;4.16;90.68
39699;BME280;25372;50.582;12.250;2023-12-20T10:14:32;99251.22;;;4.20;89.15
39699;BME280;25372;50.582;12.250;2023-12-20T10:24:56;99239.00;;;4.23;87.77
39699;BME280;25372;50.582;12.250;2023-12-20T10:35:17;99220.09;;;4.19;87.33
39699;BME280;25372;50.582;12.250;2023-12-20T10:45:41;99204.50;;;4.38;86.76
39699;BME280;25372;50.582;12.250;2023-12-20T10:56:03;99172.66;;;4.33;85.37
39699;BME280;25372;50.582;12.250;2023-12-20T11:06:35;99179.47;;;4.53;83.39
39699;BME280;25372;50.582;12.250;2023-12-20T11:17:06;99170.72;;;5.07;82.12
39699;BME280;25372;50.582;12.250;2023-12-20T11:27:30;99179.13;;;5.30;79.28
39699;BME280;25372;50.582;12.250;2023-12-20T11:37:52;99167.59;;;5.18;80.11
39699;BME280;25372;50.582;12.250;2023-12-20T11:48:14;99160.53;;;5.20;78.27
39699;BME280;25372;50.582;12.250;2023-12-20T11:58:36;99138.25;;;4.63;80.28
39699;BME280;25372;50.582;12.250;2023-12-20T12:08:59;99131.28;;;4.64;81.03
39699;BME280;25372;50.582;12.250;2023-12-20T12:19:20;99104.63;;;4.60;80.50
39699;BME280;25372;50.582;12.250;2023-12-20T12:30:00;99091.50;;;4.61;81.04
39699;BME280;25372;50.582;12.250;2023-12-20T12:40:22;99081.91;;;4.80;79.94
39699;BME280;25372;50.582;12.250;2023-12-20T12:50:45;99065.78;;;4.73;80.34
39699;BME280;25372;50.582;12.250;2023-12-20T13:01:07;99051.38;;;4.50;81.10
39699;BME280;25372;50.582;12.250;2023-12-20T13:11:29;99039.16;;;4.52;80.93
39699;BME280;25372;50.582;12.250;2023-12-20T13:21:51;99030.94;;;4.42;82.03
39699;BME280;25372;50.582;12.250;2023-12-20T13:32:13;99016.13;;;4.44;80.37
39699;BME280;25372;50.582;12.250;2023-12-20T13:42:34;99025.22;;;4.35;80.37
39699;BME280;25372;50.582;12.250;2023-12-20T13:52:57;99005.00;;;4.24;81.89
39699;BME280;25372;50.582;12.250;2023-12-20T14:03:18;99012.56;;;4.29;80.93
39699;BME280;25372;50.582;12.250;2023-12-20T14:13:40;98987.16;;;4.34;80.56
39699;BME280;25372;50.582;12.250;2023-12-20T14:24:03;98977.47;;;4.20;80.67
39699;BME280;25372;50.582;12.250;2023-12-20T14:34:26;98970.22;;;4.09;81.04
39699;BME280;25372;50.582;12.250;2023-12-20T14:44:47;98980.63;;;4.09;81.22
39699;BME280;25372;50.582;12.250;2023-12-20T14:55:10;98983.75;;;4.16;79.74
39699;BME280;25372;50.582;12.250;2023-12-20T15:05:31;98980.31;;;4.15;80.56
39699;BME280;25372;50.582;12.250;2023-12-20T15:15:53;98982.28;;;4.10;80.20
39699;BME280;25372;50.582;12.250;2023-12-20T15:26:14;98976.44;;;3.89;82.32
39699;BME280;25372;50.582;12.250;2023-12-20T15:36:37;98986.72;;;3.90;82.34
39699;BME280;25372;50.582;12.250;2023-12-20T15:46:58;98993.97;;;4.19;81.34
39699;BME280;25372;50.582;12.250;2023-12-20T15:57:20;98999.44;;;4.48;80.26
39699;BME280;25372;50.582;12.250;2023-12-20T16:07:42;98996.84;;;4.48;80.90
39699;BME280;25372;50.582;12.250;2023-12-20T16:18:05;99010.78;;;4.47;81.02
39699;BME280;25372;50.582;12.250;2023-12-20T16:28:29;98998.84;;;4.43;81.46
39699;BME280;25372;50.582;12.250;2023-12-20T16:38:51;99006.66;;;4.43;81.53
39699;BME280;25372;50.582;12.250;2023-12-20T16:49:13;99001.47;;;4.43;81.70
39699;BME280;25372;50.582;12.250;2023-12-20T16:59:35;99013.69;;;4.41;82.01
39699;BME280;25372;50.582;12.250;2023-12-20T17:09:57;99009.25;;;4.43;82.30
39699;BME280;25372;50.582;12.250;2023-12-20T17:20:19;99021.28;;;4.28;84.69
39699;BME280;25372;50.582;12.250;2023-12-20T17:30:41;99026.09;;;4.00;88.27
39699;BME280;25372;50.582;12.250;2023-12-20T17:41:03;99033.47;;;3.90;89.28
39699;BME280;25372;50.582;12.250;2023-12-20T17:51:24;99045.53;;;3.74;91.29
39699;BME280;25372;50.582;12.250;2023-12-20T18:01:47;99051.19;;;3.64;93.59
39699;BME280;25372;50.582;12.250;2023-12-20T18:12:08;99052.78;;;3.48;96.76
39699;BME280;25372;50.582;12.250;2023-12-20T18:22:31;99051.06;;;3.48;98.19
39699;BME280;25372;50.582;12.250;2023-12-20T18:32:52;99055.13;;;3.54;99.53
39699;BME280;25372;50.582;12.250;2023-12-20T18:43:15;99059.69;;;3.30;100.00
39699;BME280;25372;50.582;12.250;2023-12-20T18:53:36;99060.38;;;3.53;99.07
39699;BME280;25372;50.582;12.250;2023-12-20T19:03:59;99047.84;;;3.43;100.00
39699;BME280;25372;50.582;12.250;2023-12-20T19:14:21;99064.53;;;3.38;100.00
39699;BME280;25372;50.582;12.250;2023-12-20T19:24:44;99067.91;;;3.40;100.00
39699;BME280;25372;50.582;12.250;2023-12-20T19:35:05;99048.47;;;3.29;100.00
39699;BME280;25372;50.582;12.250;2023-12-20T19:45:27;99020.00;;;3.28;100.00
39699;BME280;25372;50.582;12.250;2023-12-20T19:55:48;99011.50;;;3.24;100.00
39699;BME280;25372;50.582;12.250;2023-12-20T20:06:11;98997.91;;;3.19;100.00
39699;BME280;25372;50.582;12.250;2023-12-20T20:16:32;98980.34;;;3.24;100.00
39699;BME280;25372;50.582;12.250;2023-12-20T20:26:55;98975.81;;;3.29;100.00
39699;BME280;25372;50.582;12.250;2023-12-20T20:37:16;98956.19;;;3.41;98.62
39699;BME280;25372;50.582;12.250;2023-12-20T20:47:38;98942.16;;;3.45;97.85
39699;BME280;25372;50.582;12.250;2023-12-20T20:57:59;98931.78;;;3.45;95.69
39699;BME280;25372;50.582;12.250;2023-12-20T21:08:22;98924.28;;;3.39;95.41
39699;BME280;25372;50.582;12.250;2023-12-20T21:18:43;98913.44;;;3.31;95.82
39699;BME280;25372;50.582;12.250;2023-12-20T21:29:06;98887.44;;;3.50;94.25
39699;BME280;25372;50.582;12.250;2023-12-20T21:39:28;98843.25;;;3.68;91.42
39699;BME280;25372;50.582;12.250;2023-12-20T21:49:50;98839.28;;;3.78;91.26
39699;BME280;25372;50.582;12.250;2023-12-20T22:00:12;98814.44;;;3.90;90.26
39699;BME280;25372;50.582;12.250;2023-12-20T22:10:35;98784.53;;;3.99;88.87
39699;BME280;25372;50.582;12.250;2023-12-20T22:20:56;98780.00;;;4.02;88.44
39699;BME280;25372;50.582;12.250;2023-12-20T22:31:19;98779.59;;;4.10;88.53
39699;BME280;25372;50.582;12.250;2023-12-20T22:41:40;98765.69;;;4.11;89.62
39699;BME280;25372;50.582;12.250;2023-12-20T22:52:05;98735.00;;;4.02;91.24
39699;BME280;25372;50.582;12.250;2023-12-20T23:02:26;98703.06;;;4.00;91.48
39699;BME280;25372;50.582;12.250;2023-12-20T23:12:49;98687.66;;;4.13;90.69
39699;BME280;25372;50.582;12.250;2023-12-20T23:23:10;98667.34;;;4.19;90.34
39699;BME280;25372;50.582;12.250;2023-12-20T23:33:32;98634.50;;;4.18;91.25
39699;BME280;25372;50.582;12.250;2023-12-20T23:43:53;98632.72;;;4.19;91.38
39699;BME280;25372;50.582;12.250;2023-12-20T23:54:16;98615.72;;;4.13;93.44
